Flight Track Log - Related Links

Times and Time Zones

All times are in EDT time to prevent confusion due to time zone crossing. See the SWA3497 flight status page for this flight to view local times or setup timezone preferences in your user account.

Time Position Orientation Groundspeed Altitude Reporting Facility
EDT Latitude Longitude Course Direction KTS MPH feet Rate Location/Type
Thu 12:31:24 PM 41.7667 -87.6833 180° South 223 257 3,400  Level Chicago TRACON
Thu 12:33:33 PM 41.6317 -87.6911 182° South 269 310 9,800 3,204 Climbing Chicago Center
Thu 12:34:35 PM 41.5547 -87.7039 187° South 277 319 13,600 3,532 Climbing Chicago Center
Thu 12:35:37 PM 41.4761 -87.7167 187° South 280 322 17,100 2,613 Climbing Chicago Center
Thu 12:36:00 PM 41.2542 -87.7167 180° South  Level FlightAware Approximate
Thu 12:36:39 PM 41.3875 -87.7258 184° South 312 359 19,000  Level Chicago Center
Thu 12:37:41 PM 41.2642 -87.7261 180° South 365 420 22,100 1,935 Climbing Chicago Center
Thu 12:38:43 PM 41.1597 -87.7217 178° South 373 429 23,000 435 Climbing Chicago Center
Thu 12:39:45 PM 41.0544 -87.7061 174° South 379 436 23,000  Level Chicago Center
Thu 12:40:47 PM 40.9508 -87.6911 174° South 376 433 23,000  Level Chicago Center
Thu 12:41:49 PM 40.8467 -87.6736 173° South 378 435 23,000  Level Chicago Center
Thu 12:42:51 PM 40.7450 -87.6381 165° South 380 437 23,000  Level Chicago Center
Thu 12:43:53 PM 40.6214 -87.5989 166° South 382 440 23,000  Level Chicago Center
Thu 12:44:55 PM 40.5192 -87.5667 167° South 381 438 23,000  Level Chicago Center
Thu 12:45:57 PM 40.4164 -87.5342 166° South 382 440 23,000  Level Chicago Center
Thu 12:46:59 PM 40.3122 -87.5025 167° South 384 442 23,000  Level Chicago Center
Thu 12:48:01 PM 40.2114 -87.4708 167° South 376 433 23,000  Level Chicago Center
Thu 12:48:53 PM 40.1222 -87.4447 167° South 374 430 23,000  Level Indianapolis Center
Thu 12:49:55 PM 40.0036 -87.4075 166° South 368 423 23,000  Level Indianapolis Center
Thu 12:51:00 PM 39.9133 -87.3580 167° South  Level FlightAware Approximate
Thu 12:52:09 PM 39.7844 -87.3408 167° South 375 432 23,000  Level Chicago Center
Thu 12:53:01 PM 39.7017 -87.3147 166° South 375 432 23,000  Level Indianapolis Center
Thu 12:54:03 PM 39.6025 -87.2822 166° South 371 427 23,000  Level Indianapolis Center
Thu 12:55:05 PM 39.4842 -87.2378 164° South 375 432 23,000  Level Indianapolis Center
Thu 12:57:09 PM 39.3331 -87.0553 137° Southeast 375 432 23,000  Level Indianapolis Center
Thu 12:58:11 PM 39.2589 -86.9642 136° Southeast 372 428 23,000  Level Indianapolis Center
Thu 12:59:13 PM 39.1844 -86.8736 137° Southeast 371 427 23,000 -484 Level Indianapolis Center
Thu 01:00:15 PM 39.1028 -86.7722 136° Southeast 370 426 22,000 -1,403 Descending Indianapolis Center
Thu 01:01:17 PM 39.0303 -86.6842 137° Southeast 360 414 20,100 -1,839 Descending Indianapolis Center
Thu 01:02:19 PM 38.9611 -86.6017 137° Southeast 343 395 18,200 -1,887 Descending Indianapolis Center
Thu 01:03:21 PM 38.8892 -86.5136 136° Southeast 341 392 16,200 -1,935 Descending Indianapolis Center
Thu 01:04:23 PM 38.8244 -86.4356 137° Southeast 335 386 14,200 -2,177 Descending Indianapolis Center
Thu 01:05:25 PM 38.7444 -86.3406 137° Southeast 329 379 11,700 -1,790 Descending Indianapolis Center
Thu 01:06:27 PM 38.6650 -86.2917 154° Southeast 321 369 10,500 -1,113 Descending Indianapolis Center
Thu 01:07:29 PM 38.5894 -86.2503 157° South 308 354 9,400 -1,306 Descending Indianapolis Center
Thu 01:08:31 PM 38.5214 -86.2117 156° South 281 323 7,800 -1,161 Descending Indianapolis Center
Thu 01:09:33 PM 38.4525 -86.1742 157° South 270 311 7,000 -726 Descending Indianapolis Center
Thu 01:10:35 PM 38.3897 -86.1386 156° South 253 291 6,300 -484 Descending Indianapolis Center
Thu 01:11:37 PM 38.3556 -86.0825 128° Southeast 245 282 6,000 -145 Descending Indianapolis Center
Thu 01:12:39 PM 38.3889 -85.9928 65° Northeast 233 268 6,000  Level Indianapolis Center
Thu 01:13:42 PM 38.4186 -85.9178 63° Northeast 236 272 6,000 -336 Level Indianapolis Center
Thu 01:14:44 PM 38.4844 -85.9047 North 236 272 5,300 -871 Descending Indianapolis Center
Thu 01:15:46 PM 38.4700 -85.8417 106° East 240 276 4,200 -774 Descending Indianapolis Center
Thu 01:16:48 PM 38.4111 -85.8233 166° South 228 262 3,700 -581 Descending Indianapolis Center
Thu 01:17:50 PM 38.3592 -85.8067 166° South 211 243 3,000 -339 Descending Indianapolis Center
Thu 01:18:52 PM 38.3122 -85.7911 165° South 195 224 3,000 -242 Level Indianapolis Center
Thu 01:19:54 PM 38.2583 -85.7722 165° South 188 216 2,500 -484 Descending Indianapolis Center
Thu 01:22:00 PM 38.1741 -85.7365 159° South  Level Estimated
Thu 01:29:00 PM 38.1741 -85.7365 28° Northeast  Level Estimated

Login

Don't have an account? Register now (free) for customized features, flight alerts, and more!